createdAt,value
2018-08-04T00:00:00.795Z,89.84
2018-08-04T00:03:05.084Z,90.04
2018-08-04T00:06:09.432Z,90.07
2018-08-04T00:09:14.321Z,90.30
2018-08-04T00:12:18.603Z,90.41
2018-08-04T00:15:22.902Z,91.23
2018-08-04T00:18:27.118Z,91.71
2018-08-04T00:21:31.474Z,91.37
2018-08-04T00:24:35.787Z,91.99
2018-08-04T00:27:40.052Z,91.27
2018-08-04T00:30:44.402Z,91.21
2018-08-04T00:33:48.560Z,91.42
2018-08-04T00:36:52.846Z,91.64
2018-08-04T00:39:57.153Z,91.20
2018-08-04T00:43:01.468Z,91.21
2018-08-04T00:46:06.129Z,91.46
2018-08-04T00:49:10.460Z,91.58
2018-08-04T00:52:14.844Z,90.90
2018-08-04T00:55:19.144Z,91.84
2018-08-04T00:58:23.486Z,91.38
2018-08-04T01:01:27.803Z,91.33
2018-08-04T01:04:32.118Z,90.87
2018-08-04T01:07:36.440Z,91.27
2018-08-04T01:10:40.721Z,90.64
2018-08-04T01:13:45.081Z,90.99
2018-08-04T01:16:49.341Z,90.49
2018-08-04T01:19:53.613Z,90.54
2018-08-04T01:22:57.758Z,89.75
2018-08-04T01:26:02.045Z,89.83
2018-08-04T01:29:06.409Z,89.29
2018-08-04T01:32:10.681Z,89.62
2018-08-04T01:35:15.111Z,89.27
2018-08-04T01:38:19.431Z,89.29
2018-08-04T01:41:23.714Z,89.92
2018-08-04T01:44:28.072Z,89.54
2018-08-04T01:47:32.196Z,89.33
2018-08-04T01:50:36.308Z,89.46
2018-08-04T01:53:40.853Z,90.26
2018-08-04T01:56:45.063Z,89.82
2018-08-04T01:59:49.339Z,90.81
2018-08-04T02:02:53.681Z,90.94
2018-08-04T02:05:58.005Z,90.88
2018-08-04T02:09:02.335Z,91.40
2018-08-04T02:12:06.956Z,92.41
2018-08-04T02:15:11.247Z,92.35
2018-08-04T02:18:15.582Z,92.22
2018-08-04T02:21:19.874Z,92.37
2018-08-04T02:24:24.130Z,93.01
2018-08-04T02:27:28.664Z,93.13
2018-08-04T02:30:32.953Z,92.57
2018-08-04T02:33:39.217Z,93.69
2018-08-04T02:36:43.535Z,92.87
2018-08-04T02:39:47.861Z,93.70
2018-08-04T02:42:52.171Z,93.50
2018-08-04T02:45:56.496Z,93.57
2018-08-04T02:49:00.788Z,94.05
2018-08-04T02:52:05.303Z,94.86
2018-08-04T02:55:09.696Z,95.09
2018-08-04T02:58:13.944Z,95.46
2018-08-04T03:01:18.314Z,95.51
2018-08-04T03:04:22.627Z,95.66
2018-08-04T03:07:26.867Z,96.53
2018-08-04T03:10:31.175Z,96.55
2018-08-04T03:13:35.735Z,96.99
2018-08-04T03:16:40.127Z,96.29
2018-08-04T03:19:44.419Z,96.46
2018-08-04T03:22:48.746Z,96.44
2018-08-04T03:25:52.872Z,96.20
2018-08-04T03:28:57.429Z,96.76
2018-08-04T03:32:01.816Z,96.41
2018-08-04T03:35:06.342Z,96.44
2018-08-04T03:38:10.618Z,95.71
2018-08-04T03:41:14.940Z,96.62
2018-08-04T03:44:19.280Z,96.27
2018-08-04T03:47:23.619Z,95.83
2018-08-04T03:50:27.916Z,95.89
2018-08-04T03:53:32.177Z,95.76
2018-08-04T03:56:36.470Z,96.30
2018-08-04T03:59:40.800Z,95.91
2018-08-04T04:02:45.097Z,96.48
2018-08-04T04:05:49.424Z,96.33
2018-08-04T04:08:53.785Z,96.68
2018-08-04T04:11:58.052Z,97.56
2018-08-04T04:15:02.394Z,96.74
2018-08-04T04:18:06.889Z,97.39
2018-08-04T04:21:11.320Z,97.56
2018-08-04T04:24:15.623Z,98.11
2018-08-04T04:27:19.872Z,97.13
2018-08-04T04:30:24.174Z,97.62
2018-08-04T04:33:28.551Z,97.48
2018-08-04T04:36:32.800Z,97.19
2018-08-04T04:39:37.116Z,97.17
2018-08-04T04:42:41.443Z,97.51
2018-08-04T04:45:45.779Z,97.15
2018-08-04T04:48:50.100Z,97.50
2018-08-04T04:51:54.393Z,97.94
2018-08-04T04:54:58.749Z,97.70
2018-08-04T04:58:03.034Z,97.98
2018-08-04T05:01:07.489Z,98.03
2018-08-04T05:04:11.777Z,98.06
2018-08-04T05:07:16.024Z,97.40
2018-08-04T05:10:20.283Z,97.79
2018-08-04T05:13:24.753Z,97.13
2018-08-04T05:16:28.949Z,97.27
2018-08-04T05:19:33.247Z,95.91
2018-08-04T05:22:37.533Z,94.93
2018-08-04T05:25:41.792Z,93.47
2018-08-04T05:28:46.045Z,92.72
2018-08-04T05:31:50.339Z,92.30
2018-08-04T05:34:54.668Z,91.34
2018-08-04T05:37:58.961Z,89.43
2018-08-04T05:41:03.313Z,90.30
2018-08-04T05:44:07.779Z,90.07
2018-08-04T05:47:12.027Z,89.75
2018-08-04T05:50:16.376Z,88.34
2018-08-04T05:53:20.731Z,88.51
2018-08-04T05:56:25.389Z,88.52
2018-08-04T05:59:29.647Z,87.49
2018-08-04T06:02:33.917Z,87.82
2018-08-04T06:05:38.285Z,87.71
2018-08-04T06:08:42.562Z,88.61
2018-08-04T06:11:46.854Z,88.37
2018-08-04T06:14:51.204Z,87.77
2018-08-04T06:17:55.541Z,86.70
2018-08-04T06:20:59.918Z,86.83
2018-08-04T06:24:04.197Z,86.42
2018-08-04T06:27:08.518Z,85.24
2018-08-04T06:30:13.203Z,84.51
2018-08-04T06:33:17.565Z,83.73
2018-08-04T06:36:21.873Z,84.65
2018-08-04T06:39:26.138Z,84.69
2018-08-04T06:42:30.427Z,84.47
2018-08-04T06:45:34.722Z,84.34
2018-08-04T06:48:39.036Z,84.09
2018-08-04T06:51:43.338Z,82.43
2018-08-04T06:54:47.688Z,81.33
2018-08-04T06:57:52.027Z,80.02
2018-08-04T07:00:56.347Z,78.67
2018-08-04T07:04:00.607Z,78.66
2018-08-04T07:07:04.987Z,77.06
2018-08-04T07:10:09.264Z,76.27
2018-08-04T07:13:13.593Z,75.64
2018-08-04T07:16:17.917Z,75.88
2018-08-04T07:19:22.281Z,76.06
2018-08-04T07:22:26.570Z,76.13
2018-08-04T07:25:30.691Z,77.31
2018-08-04T07:28:35.250Z,77.67
2018-08-04T07:31:39.643Z,78.27
2018-08-04T07:35:11.942Z,78.55
2018-08-04T07:38:19.285Z,79.12
2018-08-04T07:41:27.844Z,79.47
2018-08-04T07:44:36.140Z,79.70
2018-08-04T07:47:46.358Z,79.05
2018-08-04T07:50:55.261Z,80.12
2018-08-04T07:54:13.569Z,79.33
2018-08-04T07:57:17.868Z,77.96
2018-08-04T08:00:28.209Z,77.48
2018-08-04T08:03:35.614Z,77.13
2018-08-04T08:06:39.964Z,75.71
2018-08-04T08:09:44.240Z,75.76
2018-08-04T08:12:48.520Z,74.39
2018-08-04T08:15:52.918Z,74.02
2018-08-04T08:18:57.441Z,74.52
2018-08-04T08:22:01.760Z,75.05
2018-08-04T08:25:06.919Z,75.38
2018-08-04T08:28:11.267Z,75.78
2018-08-04T08:31:15.654Z,76.01
2018-08-04T08:34:19.960Z,74.88
2018-08-04T08:37:24.274Z,73.96
2018-08-04T08:40:35.016Z,73.28
2018-08-04T08:43:50.077Z,73.35
2018-08-04T08:47:00.599Z,72.33
2018-08-04T08:50:13.078Z,73.60
2018-08-04T08:53:18.826Z,74.17
2018-08-04T08:56:23.984Z,75.83
2018-08-04T08:59:28.285Z,75.46
2018-08-04T09:02:32.591Z,75.89
2018-08-04T09:05:36.921Z,76.70
2018-08-04T09:08:41.498Z,76.35
2018-08-04T09:11:47.182Z,77.02
2018-08-04T09:14:53.867Z,74.75
2018-08-04T09:17:58.166Z,72.94
2018-08-04T09:21:02.548Z,73.08
2018-08-04T09:24:06.929Z,70.42
2018-08-04T09:27:11.282Z,68.93
2018-08-04T09:30:15.671Z,67.82
2018-08-04T09:33:20.004Z,67.65
2018-08-04T09:36:24.311Z,68.83
2018-08-04T09:39:28.657Z,68.41
2018-08-04T09:42:32.934Z,67.36
2018-08-04T09:45:39.664Z,66.51
2018-08-04T09:48:44.053Z,64.73
2018-08-04T09:51:48.353Z,64.75
2018-08-04T09:54:52.695Z,64.37
2018-08-04T09:57:57.031Z,64.32
2018-08-04T10:01:06.597Z,63.41
2018-08-04T10:04:10.985Z,62.83
2018-08-04T10:07:15.309Z,65.11
2018-08-04T10:10:19.609Z,65.73
2018-08-04T10:13:23.928Z,65.66
2018-08-04T10:16:28.237Z,64.46
2018-08-04T10:19:32.515Z,64.66
2018-08-04T10:22:36.884Z,64.03
2018-08-04T10:25:41.153Z,63.10
2018-08-04T10:28:45.404Z,62.44
2018-08-04T10:31:49.834Z,60.54
2018-08-04T10:34:54.145Z,62.03
2018-08-04T10:37:58.497Z,61.84
2018-08-04T10:41:02.831Z,62.73
2018-08-04T10:44:09.117Z,62.62
2018-08-04T10:47:13.498Z,62.54
2018-08-04T10:50:17.958Z,61.28
2018-08-04T10:53:22.348Z,61.27
2018-08-04T10:56:26.792Z,60.81
2018-08-04T10:59:31.163Z,60.83
2018-08-04T11:02:35.604Z,60.40
2018-08-04T11:05:39.965Z,61.50
2018-08-04T11:08:44.277Z,60.81
2018-08-04T11:11:48.560Z,60.80
2018-08-04T11:14:52.900Z,59.98
2018-08-04T11:17:57.224Z,62.01
2018-08-04T11:21:02.265Z,58.46
2018-08-04T11:24:06.809Z,58.59
2018-08-04T11:27:11.097Z,58.93
2018-08-04T11:30:15.491Z,60.04
2018-08-04T11:33:19.815Z,58.48
2018-08-04T11:36:24.128Z,56.09
2018-08-04T11:39:28.465Z,55.41
2018-08-04T11:42:32.741Z,54.47
2018-08-04T11:45:37.129Z,55.09
2018-08-04T11:48:41.475Z,54.27
2018-08-04T11:51:45.786Z,53.47
2018-08-04T11:54:50.130Z,54.91
2018-08-04T11:57:54.450Z,53.94
2018-08-04T12:00:58.785Z,54.73
2018-08-04T12:04:03.108Z,54.75
2018-08-04T12:07:07.436Z,55.77
2018-08-04T12:10:11.955Z,58.06
2018-08-04T12:13:16.294Z,57.68
2018-08-04T12:16:20.586Z,59.19
2018-08-04T12:19:25.023Z,59.81
2018-08-04T12:22:29.287Z,56.33
2018-08-04T12:25:33.708Z,55.31
2018-08-04T12:28:38.092Z,55.09
2018-08-04T12:31:42.378Z,55.77
2018-08-04T12:34:46.670Z,56.29
2018-08-04T12:37:50.903Z,55.02
2018-08-04T12:40:55.245Z,56.59
2018-08-04T12:43:59.562Z,58.94
2018-08-04T12:47:03.721Z,59.97
2018-08-04T12:50:08.945Z,62.28
2018-08-04T12:53:13.247Z,61.77
2018-08-04T12:56:17.678Z,62.24
2018-08-04T12:59:21.973Z,61.07
2018-08-04T13:02:26.297Z,58.11
2018-08-04T13:05:30.604Z,57.77
2018-08-04T13:08:34.941Z,56.00
2018-08-04T13:11:39.294Z,56.29
2018-08-04T13:14:43.697Z,56.29
2018-08-04T13:17:47.970Z,56.46
2018-08-04T13:20:52.469Z,56.30
2018-08-04T13:23:56.788Z,55.88
2018-08-04T13:27:01.226Z,56.81
2018-08-04T13:30:05.817Z,56.67
2018-08-04T13:33:10.231Z,56.49
2018-08-04T13:36:14.544Z,57.39
2018-08-04T13:39:18.871Z,57.43
2018-08-04T13:42:23.161Z,58.77
2018-08-04T13:45:27.439Z,58.97
2018-08-04T13:48:31.815Z,58.34
2018-08-04T13:51:36.109Z,58.14
2018-08-04T13:54:40.542Z,58.45
2018-08-04T13:57:45.014Z,56.98
2018-08-04T14:00:49.312Z,57.43
2018-08-04T14:03:53.732Z,57.71
2018-08-04T14:06:58.050Z,58.94
2018-08-04T14:10:02.356Z,58.81
2018-08-04T14:13:06.812Z,57.60
2018-08-04T14:16:11.219Z,57.67
2018-08-04T14:19:15.476Z,57.50
2018-08-04T14:22:19.793Z,57.94
2018-08-04T14:25:24.171Z,56.93
2018-08-04T14:28:28.567Z,58.00
2018-08-04T14:31:32.886Z,56.79
2018-08-04T14:34:37.210Z,57.85
2018-08-04T14:37:41.352Z,58.68
2018-08-04T14:40:45.606Z,59.29
2018-08-04T14:43:49.960Z,59.19
2018-08-04T14:46:54.304Z,58.20
2018-08-04T14:49:58.625Z,56.80
2018-08-04T14:53:02.922Z,57.96
2018-08-04T14:56:07.257Z,57.47
2018-08-04T14:59:11.528Z,56.69
2018-08-04T15:02:15.875Z,58.85
2018-08-04T15:05:20.180Z,59.09
2018-08-04T15:08:24.633Z,58.02
2018-08-04T15:11:28.920Z,57.66
2018-08-04T15:14:33.363Z,57.51
2018-08-04T15:17:37.720Z,58.99
2018-08-04T15:20:42.100Z,60.02
2018-08-04T15:23:46.428Z,60.96
2018-08-04T15:26:50.764Z,62.58
2018-08-04T15:29:55.080Z,61.64
2018-08-04T15:32:59.344Z,61.89
2018-08-04T15:36:03.661Z,61.95
2018-08-04T15:39:10.132Z,60.88
2018-08-04T15:42:14.517Z,60.64
2018-08-04T15:45:18.803Z,61.44
2018-08-04T15:48:23.068Z,62.08
2018-08-04T15:51:27.328Z,62.18
2018-08-04T15:54:31.667Z,63.20
2018-08-04T15:57:36.339Z,64.30
2018-08-04T16:00:40.899Z,65.03
2018-08-04T16:03:45.257Z,64.95
2018-08-04T16:06:49.714Z,65.49
2018-08-04T16:09:53.990Z,64.77
2018-08-04T16:12:58.294Z,65.39
2018-08-04T16:16:02.437Z,64.60
2018-08-04T16:19:07.077Z,65.37
2018-08-04T16:22:11.369Z,66.25
2018-08-04T16:25:16.048Z,66.33
2018-08-04T16:28:20.403Z,66.47
2018-08-04T16:31:24.690Z,67.93
2018-08-04T16:34:29.054Z,67.73
2018-08-04T16:37:33.377Z,67.25
2018-08-04T16:40:37.409Z,68.73
2018-08-04T16:43:41.665Z,69.48
2018-08-04T16:46:46.010Z,69.45
2018-08-04T16:49:50.325Z,69.27
2018-08-04T16:52:54.604Z,70.60
2018-08-04T16:55:58.896Z,69.90
2018-08-04T16:59:03.160Z,70.55
2018-08-04T17:02:07.558Z,70.69
2018-08-04T17:05:11.847Z,71.76
2018-08-04T17:08:16.091Z,72.35
2018-08-04T17:11:20.407Z,72.61
2018-08-04T17:14:24.673Z,71.18
2018-08-04T17:17:28.995Z,71.10
2018-08-04T17:20:33.351Z,70.51
2018-08-04T17:23:37.701Z,68.43
2018-08-04T17:26:42.053Z,66.46
2018-08-04T17:29:46.378Z,66.21
2018-08-04T17:32:50.732Z,68.68
2018-08-04T17:35:55.108Z,69.19
2018-08-04T17:39:00.370Z,70.96
2018-08-04T17:42:04.696Z,71.38
2018-08-04T17:45:09.030Z,72.53
2018-08-04T17:48:13.381Z,72.73
2018-08-04T17:51:17.863Z,72.66
2018-08-04T17:54:22.168Z,73.64
2018-08-04T17:57:26.571Z,73.91
2018-08-04T18:00:30.897Z,75.04
2018-08-04T18:03:35.222Z,75.13
2018-08-04T18:06:39.580Z,74.88
2018-08-04T18:09:43.980Z,74.17
2018-08-04T18:12:48.279Z,74.76
2018-08-04T18:15:52.556Z,74.59
2018-08-04T18:18:56.835Z,74.57
2018-08-04T18:22:01.121Z,74.92
2018-08-04T18:25:05.416Z,75.26
2018-08-04T18:28:09.749Z,74.92
2018-08-04T18:31:14.048Z,74.98
2018-08-04T18:34:18.447Z,75.26
2018-08-04T18:37:22.755Z,75.31
2018-08-04T18:40:27.010Z,74.87
2018-08-04T18:43:31.258Z,75.54
2018-08-04T18:46:35.610Z,76.36
2018-08-04T18:49:39.900Z,75.89
2018-08-04T18:52:44.181Z,76.45
2018-08-04T18:55:48.420Z,77.18
2018-08-04T18:58:52.779Z,77.61
2018-08-04T19:01:57.095Z,76.45
2018-08-04T19:05:01.406Z,76.42
2018-08-04T19:08:05.739Z,77.77
2018-08-04T19:11:10.055Z,77.41
2018-08-04T19:14:14.339Z,77.04
2018-08-04T19:17:18.620Z,77.40
2018-08-04T19:20:22.911Z,77.21
2018-08-04T19:23:27.194Z,77.24
2018-08-04T19:26:31.542Z,78.18
2018-08-04T19:29:35.860Z,78.48
2018-08-04T19:32:40.183Z,77.84
2018-08-04T19:35:44.500Z,78.44
2018-08-04T19:38:48.777Z,79.25
2018-08-04T19:41:53.135Z,78.49
2018-08-04T19:44:57.721Z,79.28
2018-08-04T19:48:02.074Z,79.56
2018-08-04T19:51:06.423Z,79.69
2018-08-04T19:54:10.743Z,80.50
2018-08-04T19:57:15.048Z,80.54
2018-08-04T20:00:19.340Z,80.63
2018-08-04T20:03:23.734Z,80.43
2018-08-04T20:06:28.079Z,80.66
2018-08-04T20:09:32.146Z,80.93
2018-08-04T20:12:36.425Z,81.32
2018-08-04T20:15:40.706Z,80.93
2018-08-04T20:18:45.025Z,81.10
2018-08-04T20:21:49.328Z,82.21
2018-08-04T20:24:53.656Z,82.79
2018-08-04T20:27:58.055Z,83.01
2018-08-04T20:31:02.340Z,82.66
2018-08-04T20:34:06.633Z,82.81
2018-08-04T20:37:11.003Z,83.47
2018-08-04T20:40:15.304Z,83.76
2018-08-04T20:43:19.629Z,83.87
2018-08-04T20:46:23.980Z,82.97
2018-08-04T20:49:28.265Z,83.11
2018-08-04T20:52:32.692Z,83.36
2018-08-04T20:55:37.029Z,83.55
2018-08-04T20:58:41.440Z,83.03
2018-08-04T21:01:59.521Z,83.35
2018-08-04T21:05:03.916Z,83.63
2018-08-04T21:08:08.421Z,83.33
2018-08-04T21:11:12.762Z,84.14
2018-08-04T21:14:17.308Z,84.43
2018-08-04T21:17:21.584Z,84.50
2018-08-04T21:20:25.889Z,84.37
2018-08-04T21:23:30.171Z,84.55
2018-08-04T21:26:34.551Z,84.72
2018-08-04T21:29:38.946Z,85.89
2018-08-04T21:32:43.425Z,85.58
2018-08-04T21:35:47.858Z,85.45
2018-08-04T21:38:52.124Z,85.98
2018-08-04T21:41:56.511Z,85.58
2018-08-04T21:45:00.857Z,85.90
2018-08-04T21:48:05.307Z,86.18
2018-08-04T21:51:09.805Z,85.74
2018-08-04T21:54:19.914Z,86.31
2018-08-04T21:57:19.444Z,85.29
2018-08-04T22:00:23.915Z,85.34
2018-08-04T22:03:28.327Z,84.78
2018-08-04T22:07:54.608Z,85.69
2018-08-04T22:10:58.868Z,84.29
2018-08-04T22:14:03.230Z,84.75
2018-08-04T22:17:07.605Z,84.58
2018-08-04T22:20:15.314Z,84.93
2018-08-04T22:23:19.459Z,85.02
2018-08-04T22:26:23.750Z,84.13
2018-08-04T22:29:28.061Z,84.05
2018-08-04T22:32:32.396Z,84.19
2018-08-04T22:35:36.779Z,83.80
2018-08-04T22:38:41.124Z,84.17
2018-08-04T22:41:45.445Z,84.53
2018-08-04T22:46:08.258Z,84.04
2018-08-04T22:49:12.616Z,84.81
2018-08-04T22:52:16.960Z,84.74
2018-08-04T22:55:21.383Z,85.07
2018-08-04T22:58:25.721Z,84.61
2018-08-04T23:01:30.060Z,85.69
2018-08-04T23:04:34.450Z,85.61
2018-08-04T23:07:38.717Z,85.12
2018-08-04T23:10:43.735Z,85.32
2018-08-04T23:13:48.123Z,85.65
2018-08-04T23:16:52.406Z,85.31
2018-08-04T23:19:56.747Z,85.36
2018-08-04T23:23:01.232Z,85.44
2018-08-04T23:26:05.511Z,85.39
2018-08-04T23:29:10.097Z,84.91
2018-08-04T23:32:14.520Z,85.79
2018-08-04T23:35:18.837Z,85.91
2018-08-04T23:38:23.261Z,85.29
2018-08-04T23:41:27.577Z,85.13
2018-08-04T23:44:31.953Z,85.13
2018-08-04T23:47:36.199Z,85.91
2018-08-04T23:50:40.657Z,85.71
2018-08-04T23:53:45.091Z,85.78
2018-08-04T23:56:49.384Z,85.52
2018-08-04T23:59:53.710Z,85.40
